Time;durP1;ratioP1;P1;durP2;ratioP2;P2;SDS_P1;SDS_P2;PMS_P1;PMS_P2;Temp;Humidity;BMP_temperature;BMP_pressure;BME280_temperature;BME280_humidity;BME280_pressure;Samples;Min_cycle;Max_cycle;Signal;HPM_P1;HPM_P2
2022/01/31 00:00:14;;;;;;;4.23;2.20;;;21.60;33.00;;;;;;5032644;28;20484;-76
2022/01/31 00:02:44;;;;;;;4.72;2.20;;;21.60;33.00;;;;;;5033229;28;20409;-66
2022/01/31 00:05:10;;;;;;;4.18;2.20;;;21.60;33.00;;;;;;5050958;28;20389;-66
2022/01/31 00:07:37;;;;;;;4.33;2.27;;;21.60;32.90;;;;;;5050867;28;20393;-66
2022/01/31 00:10:07;;;;;;;3.67;2.05;;;21.60;33.00;;;;;;5050415;28;20523;-65
2022/01/31 00:12:44;;;;;;;4.07;2.00;;;21.60;33.00;;;;;;5052457;28;20500;-76
2022/01/31 00:15:10;;;;;;;5.25;2.22;;;21.60;32.90;;;;;;5054573;28;20381;-66
2022/01/31 00:17:35;;;;;;;3.75;1.75;;;21.60;32.90;;;;;;5036499;28;20456;-70
2022/01/31 00:20:01;;;;;;;4.50;2.17;;;21.60;32.90;;;;;;5054347;28;20422;-69
2022/01/31 00:22:27;;;;;;;3.92;2.10;;;21.60;33.00;;;;;;5054113;28;20421;-74
2022/01/31 00:24:52;;;;;;;3.95;2.00;;;21.60;32.90;;;;;;5054407;28;20398;-67
2022/01/31 00:27:18;;;;;;;3.42;2.10;;;21.60;33.00;;;;;;5054407;28;20393;-73
2022/01/31 00:29:44;;;;;;;5.00;2.10;;;21.60;33.00;;;;;;5054271;28;20862;-75
2022/01/31 00:32:09;;;;;;;4.32;1.80;;;21.60;32.90;;;;;;5053839;28;20390;-66
2022/01/31 00:34:35;;;;;;;4.40;1.80;;;21.60;32.90;;;;;;5054242;28;20420;-76
2022/01/31 00:37:01;;;;;;;4.85;2.13;;;21.60;32.80;;;;;;5036263;28;20421;-65
2022/01/31 00:39:26;;;;;;;3.70;1.90;;;21.60;32.80;;;;;;5054165;28;20388;-68
2022/01/31 00:41:52;;;;;;;4.53;1.92;;;21.60;32.80;;;;;;5054100;28;20432;-66
2022/01/31 00:44:25;;;;;;;4.73;1.87;;;21.60;32.80;;;;;;5053702;28;20396;-67
2022/01/31 00:46:57;;;;;;;3.08;1.60;;;21.50;32.70;;;;;;5054143;28;20388;-73
2022/01/31 00:49:49;;;;;;;2.58;1.45;;;21.50;32.70;;;;;;5035964;28;20774;-65
2022/01/31 00:52:08;;;;;;;3.17;1.83;;;21.50;32.80;;;;;;5053026;28;20496;-74
2022/01/31 00:54:34;;;;;;;2.70;1.63;;;21.50;32.80;;;;;;5035953;28;20480;-70
2022/01/31 00:56:59;;;;;;;4.33;1.97;;;21.50;32.80;;;;;;5053780;28;20413;-71
2022/01/31 00:59:25;;;;;;;3.90;1.90;;;21.50;32.80;;;;;;5036009;28;20397;-65
2022/01/31 01:01:50;;;;;;;3.33;1.70;;;21.50;32.80;;;;;;5053885;28;20389;-69
2022/01/31 01:04:16;;;;;;;3.67;1.77;;;21.50;32.80;;;;;;5035414;28;20889;-65
2022/01/31 01:06:42;;;;;;;3.77;1.70;;;21.50;32.90;;;;;;5053673;28;20420;-69
2022/01/31 01:09:08;;;;;;;3.40;1.73;;;21.50;32.90;;;;;;5053698;28;20413;-71
2022/01/31 01:11:34;;;;;;;3.30;1.80;;;21.50;32.90;;;;;;5053595;28;20397;-65
2022/01/31 01:14:00;;;;;;;3.35;1.50;;;21.50;32.90;;;;;;5053437;28;20460;-74
2022/01/31 01:16:26;;;;;;;3.53;1.63;;;21.50;32.90;;;;;;5053159;28;20846;-65
2022/01/31 01:18:51;;;;;;;3.17;1.65;;;21.50;32.90;;;;;;5053542;28;20409;-68
2022/01/31 01:21:17;;;;;;;3.93;1.43;;;21.50;32.90;;;;;;5053557;28;20727;-69
2022/01/31 01:23:43;;;;;;;3.55;1.52;;;21.50;32.90;;;;;;5052539;28;20477;-65
2022/01/31 01:26:09;;;;;;;4.70;1.60;;;21.50;32.80;;;;;;5035002;28;20385;-66
2022/01/31 01:28:34;;;;;;;3.15;1.40;;;21.40;32.80;;;;;;5053291;28;20397;-69
2022/01/31 01:31:00;;;;;;;2.47;1.37;;;21.50;32.90;;;;;;5053063;28;20821;-76
2022/01/31 01:33:26;;;;;;;3.65;1.48;;;21.50;32.90;;;;;;5053261;28;20389;-66
2022/01/31 01:35:54;;;;;;;2.85;1.40;;;21.50;32.90;;;;;;5053101;28;20394;-65
2022/01/31 01:38:27;;;;;;;4.28;1.67;;;21.50;32.90;;;;;;5052670;28;20927;-68
2022/01/31 01:40:52;;;;;;;2.72;1.23;;;21.50;32.80;;;;;;5053113;28;20522;-65
2022/01/31 01:43:18;;;;;;;3.72;1.50;;;21.50;32.80;;;;;;5053133;28;20938;-67
2022/01/31 01:45:44;;;;;;;3.35;1.80;;;21.40;32.80;;;;;;5052981;28;20932;-66
2022/01/31 01:48:10;;;;;;;2.85;1.45;;;21.40;32.80;;;;;;5034741;28;20398;-72
2022/01/31 01:50:40;;;;;;;2.92;1.38;;;21.40;32.80;;;;;;5052736;28;20551;-70
2022/01/31 01:53:07;;;;;;;3.08;1.38;;;21.40;32.80;;;;;;5035030;28;20885;-69
2022/01/31 01:55:33;;;;;;;3.20;1.30;;;21.40;32.80;;;;;;5052796;28;20426;-65
2022/01/31 01:57:59;;;;;;;3.42;1.40;;;21.40;32.80;;;;;;5052668;28;20414;-67
2022/01/31 02:00:43;;;;;;;2.95;1.38;;;21.40;32.80;;;;;;5052095;28;20392;-67
2022/01/31 02:03:08;;;;;;;2.47;1.45;;;21.40;32.80;;;;;;5052662;28;20504;-67
2022/01/31 02:05:34;;;;;;;2.97;1.20;;;21.40;32.80;;;;;;5052601;28;20840;-65
2022/01/31 02:08:00;;;;;;;2.90;1.40;;;21.40;32.80;;;;;;5052571;28;20405;-69
2022/01/31 02:10:25;;;;;;;2.50;1.23;;;21.40;32.80;;;;;;5052022;28;20382;-71
2022/01/31 02:12:51;;;;;;;3.00;1.33;;;21.40;32.80;;;;;;5052550;28;20390;-73
2022/01/31 02:15:22;;;;;;;2.70;1.27;;;21.30;32.80;;;;;;5052450;28;20801;-69
2022/01/31 02:17:48;;;;;;;2.00;1.20;;;21.40;32.80;;;;;;5052410;28;20500;-68
2022/01/31 02:20:14;;;;;;;3.97;1.48;;;21.40;32.80;;;;;;5051845;28;20493;-67
2022/01/31 02:22:39;;;;;;;3.10;1.40;;;21.40;32.80;;;;;;5052255;28;20822;-65
2022/01/31 02:25:05;;;;;;;2.92;1.25;;;21.30;32.70;;;;;;5052260;28;20892;-67
2022/01/31 02:27:34;;;;;;;2.45;1.38;;;21.30;32.70;;;;;;5052116;28;20398;-76
2022/01/31 02:29:59;;;;;;;2.53;1.10;;;21.30;32.70;;;;;;5034678;28;20404;-66
2022/01/31 02:32:25;;;;;;;3.47;1.43;;;21.30;32.70;;;;;;5033758;28;20547;-66
2022/01/31 02:34:52;;;;;;;2.40;1.30;;;21.30;32.70;;;;;;5052051;28;20882;-66
2022/01/31 02:37:18;;;;;;;2.53;1.25;;;21.30;32.80;;;;;;5051984;28;20413;-66
2022/01/31 02:39:44;;;;;;;4.32;1.23;;;21.30;32.80;;;;;;5051993;28;20393;-75
2022/01/31 02:42:10;;;;;;;2.50;1.20;;;21.30;32.80;;;;;;5051380;28;20394;-65
2022/01/31 02:44:44;;;;;;;2.37;1.37;;;21.30;32.80;;;;;;5051788;28;20785;-65
2022/01/31 02:47:15;;;;;;;2.55;1.33;;;21.30;32.70;;;;;;5051863;28;20398;-65
2022/01/31 02:49:52;;;;;;;2.45;1.10;;;21.30;32.70;;;;;;5051578;28;20396;-66
2022/01/31 02:52:18;;;;;;;2.08;1.02;;;21.30;32.60;;;;;;5051292;28;20408;-65
2022/01/31 02:54:44;;;;;;;2.53;1.40;;;21.30;32.60;;;;;;5051791;28;20825;-71
2022/01/31 02:57:10;;;;;;;2.85;1.15;;;21.30;32.60;;;;;;5051575;28;20927;-67
2022/01/31 02:59:36;;;;;;;2.60;1.20;;;21.20;32.60;;;;;;5051661;28;20425;-68
2022/01/31 03:02:02;;;;;;;2.30;1.15;;;21.20;32.50;;;;;;5051589;28;20417;-66
2022/01/31 03:04:28;;;;;;;2.17;1.20;;;21.20;32.50;;;;;;5051066;28;20425;-64
2022/01/31 03:06:55;;;;;;;2.37;1.20;;;21.20;32.50;;;;;;5051567;28;20877;-70
2022/01/31 03:09:21;;;;;;;2.67;1.20;;;21.20;32.60;;;;;;5051493;28;20428;-64
2022/01/31 03:11:47;;;;;;;2.55;1.20;;;21.20;32.50;;;;;;5051538;28;20393;-65
2022/01/31 03:14:16;;;;;;;2.55;1.30;;;21.20;32.50;;;;;;5051007;28;20390;-65
2022/01/31 03:16:43;;;;;;;2.33;1.10;;;21.20;32.60;;;;;;5051226;28;20421;-66
2022/01/31 03:19:09;;;;;;;4.22;1.17;;;21.20;32.60;;;;;;5051423;28;20377;-64
2022/01/31 03:21:35;;;;;;;2.92;1.20;;;21.20;32.60;;;;;;5051257;28;20406;-66
2022/01/31 03:24:01;;;;;;;2.90;1.35;;;21.20;32.60;;;;;;5051374;28;20392;-70
2022/01/31 03:26:27;;;;;;;2.25;1.17;;;21.20;32.60;;;;;;5050834;28;20393;-65
2022/01/31 03:28:53;;;;;;;2.23;1.20;;;21.10;32.60;;;;;;5033469;28;20476;-64
2022/01/31 03:31:22;;;;;;;3.47;1.20;;;21.10;32.60;;;;;;5033367;28;20393;-64
2022/01/31 03:33:49;;;;;;;2.50;1.35;;;21.10;32.60;;;;;;5033242;28;20397;-64
2022/01/31 03:36:15;;;;;;;2.30;1.08;;;21.10;32.60;;;;;;5050800;28;20401;-73
2022/01/31 03:38:41;;;;;;;2.15;1.08;;;21.20;32.60;;;;;;5051109;28;20393;-65
2022/01/31 03:41:11;;;;;;;2.22;1.08;;;21.10;32.50;;;;;;5051469;28;20389;-66
2022/01/31 03:43:37;;;;;;;2.60;1.00;;;21.20;32.50;;;;;;5051183;28;20393;-64
2022/01/31 03:46:03;;;;;;;2.60;1.00;;;21.20;32.50;;;;;;5051241;28;20421;-64
2022/01/31 03:48:29;;;;;;;2.17;1.10;;;21.10;32.50;;;;;;5053844;28;20389;-65
2022/01/31 03:50:56;;;;;;;2.10;1.10;;;21.10;32.50;;;;;;5054960;28;20755;-68
2022/01/31 03:53:22;;;;;;;3.30;1.27;;;21.10;32.50;;;;;;5055057;28;20385;-66
2022/01/31 03:55:47;;;;;;;2.83;1.30;;;21.20;32.60;;;;;;5055017;28;20384;-68
2022/01/31 03:58:13;;;;;;;2.20;1.10;;;21.10;32.60;;;;;;5054428;28;20424;-68
2022/01/31 04:00:39;;;;;;;3.30;1.20;;;21.10;32.50;;;;;;5054982;28;20431;-70
2022/01/31 04:03:05;;;;;;;2.80;1.20;;;21.10;32.60;;;;;;5054810;28;20753;-75
2022/01/31 04:05:31;;;;;;;2.47;1.27;;;21.10;32.60;;;;;;5054829;28;20389;-71
2022/01/31 04:07:57;;;;;;;3.03;1.00;;;21.10;33.20;;;;;;5054694;28;20413;-75
2022/01/31 04:10:25;;;;;;;2.80;1.13;;;21.10;33.50;;;;;;5055044;28;20390;-66
2022/01/31 04:12:51;;;;;;;3.73;1.17;;;21.10;33.30;;;;;;5054826;28;20893;-64
2022/01/31 04:15:16;;;;;;;2.33;1.00;;;21.20;33.30;;;;;;5054587;28;20878;-71
2022/01/31 04:17:42;;;;;;;2.75;1.30;;;21.20;33.30;;;;;;5054649;28;20419;-74
2022/01/31 04:20:08;;;;;;;4.70;1.50;;;21.20;34.30;;;;;;5054380;28;20784;-68
2022/01/31 04:22:40;;;;;;;3.72;1.42;;;21.30;34.20;;;;;;5054100;28;20397;-72
2022/01/31 04:25:13;;;;;;;3.55;1.50;;;21.30;35.80;;;;;;5054575;28;20414;-74
2022/01/31 04:27:45;;;;;;;3.37;1.23;;;21.30;35.30;;;;;;5054258;28;20405;-63
2022/01/31 04:30:13;;;;;;;3.70;1.20;;;21.20;35.20;;;;;;5054207;28;20454;-70
2022/01/31 04:32:38;;;;;;;3.03;1.40;;;21.30;35.00;;;;;;5054372;28;20906;-66
2022/01/31 04:35:05;;;;;;;3.00;1.20;;;21.30;35.30;;;;;;5054324;28;20409;-64
2022/01/31 04:37:30;;;;;;;3.25;1.17;;;21.30;34.80;;;;;;5054071;28;20554;-69
2022/01/31 04:39:56;;;;;;;2.83;1.20;;;21.30;35.30;;;;;;5054296;28;20893;-64
2022/01/31 04:42:24;;;;;;;2.58;1.20;;;21.30;35.30;;;;;;5035772;28;20405;-66
2022/01/31 04:44:49;;;;;;;2.85;1.25;;;21.30;35.00;;;;;;5054062;28;20390;-69
2022/01/31 04:47:15;;;;;;;2.78;1.25;;;21.30;35.20;;;;;;5054121;28;21008;-72
2022/01/31 04:49:41;;;;;;;2.77;1.30;;;21.30;35.30;;;;;;5053767;28;20429;-67
2022/01/31 04:52:06;;;;;;;2.75;1.38;;;21.30;35.10;;;;;;5054049;28;20448;-69
2022/01/31 04:54:32;;;;;;;3.57;1.10;;;21.40;35.00;;;;;;5053451;28;20400;-63
2022/01/31 04:56:58;;;;;;;2.38;1.08;;;21.40;34.90;;;;;;5053810;28;20405;-67
2022/01/31 04:59:23;;;;;;;3.60;1.10;;;21.40;34.70;;;;;;5052339;28;20401;-63
2022/01/31 05:01:49;;;;;;;2.42;0.98;;;21.50;34.60;;;;;;5053781;28;20418;-71
2022/01/31 05:04:15;;;;;;;2.97;1.00;;;21.50;34.70;;;;;;5053130;28;20386;-63
2022/01/31 05:06:43;;;;;;;3.05;1.40;;;21.50;34.40;;;;;;5052870;28;20494;-68
2022/01/31 05:09:10;;;;;;;2.08;1.00;;;21.40;34.30;;;;;;5053641;28;20390;-69
2022/01/31 05:11:36;;;;;;;3.42;1.20;;;21.30;34.30;;;;;;5053338;28;20394;-66
2022/01/31 05:14:02;;;;;;;2.83;0.90;;;21.30;34.20;;;;;;5053669;28;20473;-75
2022/01/31 05:16:28;;;;;;;2.53;1.05;;;21.30;34.00;;;;;;5052869;28;20509;-76
2022/01/31 05:18:53;;;;;;;3.30;1.30;;;21.30;33.80;;;;;;5053570;28;20468;-65
2022/01/31 05:21:19;;;;;;;4.07;1.27;;;21.20;33.80;;;;;;5053250;28;20389;-64
2022/01/31 05:23:48;;;;;;;3.05;1.08;;;21.20;34.10;;;;;;5053366;28;20948;-72
2022/01/31 05:26:14;;;;;;;5.20;1.20;;;21.20;34.00;;;;;;5053071;28;20540;-63
2022/01/31 05:28:39;;;;;;;3.33;1.02;;;21.20;33.60;;;;;;5035065;28;20941;-73
2022/01/31 05:31:07;;;;;;;3.53;1.00;;;21.20;33.60;;;;;;5050643;28;20432;-69
2022/01/31 05:33:32;;;;;;;3.92;1.05;;;21.20;33.50;;;;;;5053205;28;20393;-69
2022/01/31 05:35:58;;;;;;;2.47;1.00;;;21.10;33.50;;;;;;5052784;28;20390;-67
2022/01/31 05:38:25;;;;;;;2.53;0.90;;;21.10;33.30;;;;;;5052416;28;20417;-63
2022/01/31 05:40:50;;;;;;;4.53;1.05;;;21.20;33.30;;;;;;5053188;28;20390;-64
2022/01/31 05:43:19;;;;;;;2.08;0.90;;;21.20;33.60;;;;;;5054281;28;20804;-70
2022/01/31 05:45:45;;;;;;;3.70;1.08;;;21.20;33.40;;;;;;5053412;28;20765;-65
2022/01/31 05:48:11;;;;;;;3.42;1.10;;;21.20;33.60;;;;;;5052979;28;20425;-70
2022/01/31 05:50:36;;;;;;;5.13;1.23;;;21.10;34.20;;;;;;5053415;28;20729;-69
2022/01/31 05:53:02;;;;;;;6.20;1.20;;;21.10;33.80;;;;;;5052815;28;20465;-63
2022/01/31 05:55:28;;;;;;;3.75;1.15;;;21.20;33.80;;;;;;5053215;28;20845;-71
2022/01/31 05:57:54;;;;;;;2.80;1.07;;;21.20;33.70;;;;;;5052557;28;20920;-65
2022/01/31 06:00:19;;;;;;;2.97;1.30;;;21.20;33.60;;;;;;5052251;28;20416;-64
2022/01/31 06:02:49;;;;;;;4.47;1.10;;;21.20;34.20;;;;;;5052551;28;20386;-65
2022/01/31 06:05:15;;;;;;;3.80;1.20;;;21.20;34.20;;;;;;5034781;28;20469;-65
2022/01/31 06:07:41;;;;;;;5.25;1.40;;;21.30;34.40;;;;;;5053204;28;20550;-68
2022/01/31 06:10:07;;;;;;;4.27;1.10;;;21.30;34.30;;;;;;5052088;28;20814;-66
2022/01/31 06:12:32;;;;;;;2.42;1.10;;;21.30;33.40;;;;;;5051875;28;20397;-63
2022/01/31 06:14:58;;;;;;;3.33;1.17;;;21.20;33.80;;;;;;5052289;28;20785;-64
2022/01/31 06:17:23;;;;;;;4.32;1.20;;;21.20;33.80;;;;;;5051690;28;20417;-66
2022/01/31 06:19:49;;;;;;;3.22;1.10;;;21.20;33.80;;;;;;5052155;28;20413;-64
2022/01/31 06:22:15;;;;;;;2.63;1.08;;;21.10;33.70;;;;;;5051718;28;20457;-64
2022/01/31 06:24:40;;;;;;;2.53;1.20;;;21.10;33.70;;;;;;5052281;28;20388;-64
2022/01/31 06:27:06;;;;;;;2.70;0.90;;;21.10;33.80;;;;;;5052149;28;20809;-65
2022/01/31 06:29:32;;;;;;;3.35;1.05;;;21.10;33.60;;;;;;5051999;28;20753;-63
2022/01/31 06:31:57;;;;;;;3.65;1.10;;;21.10;34.20;;;;;;5052004;28;20476;-65
2022/01/31 06:34:23;;;;;;;2.60;1.20;;;21.20;34.60;;;;;;5051438;28;20393;-65
2022/01/31 06:36:49;;;;;;;4.13;1.20;;;21.20;34.60;;;;;;5051996;28;20451;-65
2022/01/31 06:39:14;;;;;;;2.70;1.40;;;21.30;34.70;;;;;;5052024;28;20381;-67
2022/01/31 06:41:40;;;;;;;3.30;1.70;;;21.30;34.70;;;;;;5033469;28;20396;-64
2022/01/31 06:44:06;;;;;;;5.65;1.98;;;21.30;35.70;;;;;;5051529;28;20389;-64
2022/01/31 06:46:31;;;;;;;3.25;1.58;;;21.40;35.90;;;;;;5050528;28;20386;-69
2022/01/31 06:48:57;;;;;;;6.00;1.80;;;21.40;35.30;;;;;;5049186;28;20480;-66
2022/01/31 06:51:23;;;;;;;4.55;1.70;;;21.30;35.40;;;;;;5043715;28;20496;-66
2022/01/31 06:53:49;;;;;;;3.85;1.50;;;21.30;34.90;;;;;;5050492;28;20389;-64
2022/01/31 06:56:18;;;;;;;4.37;1.40;;;21.30;34.60;;;;;;5050738;28;20401;-65
2022/01/31 06:58:45;;;;;;;6.27;1.57;;;21.20;34.20;;;;;;5050842;28;20486;-67
2022/01/31 07:01:11;;;;;;;4.40;1.50;;;21.20;34.10;;;;;;5030821;28;20378;-65
2022/01/31 07:03:37;;;;;;;2.83;1.20;;;21.20;34.00;;;;;;5032910;28;20415;-66
2022/01/31 07:06:03;;;;;;;3.55;1.58;;;21.20;34.00;;;;;;5033143;28;20401;-68
2022/01/31 07:08:29;;;;;;;3.88;1.40;;;21.20;34.00;;;;;;5032656;28;20390;-71
2022/01/31 07:10:55;;;;;;;3.10;1.20;;;21.20;34.20;;;;;;5050959;28;20397;-79
2022/01/31 07:13:35;;;;;;;4.70;1.70;;;21.20;34.30;;;;;;5051063;28;20464;-79
2022/01/31 07:16:02;;;;;;;2.97;1.30;;;21.20;33.70;;;;;;5033696;28;20455;-78
2022/01/31 07:18:28;;;;;;;4.85;1.33;;;21.20;34.00;;;;;;5050440;28;20420;-77
2022/01/31 07:20:56;;;;;;;4.37;1.50;;;21.20;33.90;;;;;;5032952;28;20394;-77
2022/01/31 07:23:28;;;;;;;2.67;1.20;;;21.20;33.80;;;;;;5050393;28;20484;-77
2022/01/31 07:25:54;;;;;;;3.03;1.40;;;21.20;33.80;;;;;;5051008;28;20377;-77
2022/01/31 07:28:20;;;;;;;2.75;1.30;;;21.10;33.70;;;;;;5050608;28;20443;-76
2022/01/31 07:30:48;;;;;;;4.22;1.50;;;21.10;33.60;;;;;;5050624;28;20393;-71
2022/01/31 07:33:14;;;;;;;4.60;1.23;;;21.10;33.60;;;;;;5050906;28;20480;-64
2022/01/31 07:35:41;;;;;;;2.20;1.20;;;21.10;33.60;;;;;;5050779;28;20390;-72
2022/01/31 07:38:07;;;;;;;2.20;1.20;;;21.10;33.60;;;;;;5032718;28;20444;-71
2022/01/31 07:40:33;;;;;;;3.13;1.25;;;21.10;33.60;;;;;;5049357;28;20484;-74
2022/01/31 07:42:58;;;;;;;4.83;1.40;;;21.10;33.60;;;;;;5049368;28;20948;-73
2022/01/31 07:45:24;;;;;;;4.80;1.40;;;21.00;33.50;;;;;;5050475;28;20473;-76
2022/01/31 07:47:50;;;;;;;2.67;1.50;;;21.00;33.50;;;;;;5032715;28;20480;-77
2022/01/31 07:50:16;;;;;;;2.67;1.52;;;21.00;33.40;;;;;;5050359;28;20503;-77
2022/01/31 07:52:41;;;;;;;3.70;1.70;;;21.00;33.40;;;;;;5050288;28;20405;-68
2022/01/31 07:55:08;;;;;;;2.58;1.48;;;21.00;33.40;;;;;;5050286;28;20861;-76
2022/01/31 07:57:35;;;;;;;3.15;1.50;;;21.00;33.50;;;;;;5032354;28;20447;-77
2022/01/31 08:00:05;;;;;;;2.55;1.50;;;21.00;33.50;;;;;;5050312;28;20870;-76
2022/01/31 08:02:30;;;;;;;3.10;1.40;;;20.90;33.30;;;;;;5050126;28;20401;-76
2022/01/31 08:04:56;;;;;;;3.57;1.53;;;20.90;33.40;;;;;;5050309;28;20954;-73
2022/01/31 08:07:23;;;;;;;2.97;1.33;;;20.90;33.30;;;;;;5050254;28;20952;-74
2022/01/31 08:09:48;;;;;;;2.50;1.40;;;20.90;33.40;;;;;;5050364;28;20397;-75
2022/01/31 08:12:15;;;;;;;2.78;1.38;;;20.90;33.30;;;;;;5050187;28;20758;-70
2022/01/31 08:14:40;;;;;;;3.55;1.40;;;20.90;33.30;;;;;;5049891;28;20407;-77
2022/01/31 08:17:06;;;;;;;3.87;1.60;;;20.90;33.20;;;;;;5050018;28;20757;-76
2022/01/31 08:19:33;;;;;;;2.72;1.58;;;20.90;33.20;;;;;;5050382;28;20398;-76
2022/01/31 08:21:59;;;;;;;3.10;1.60;;;20.90;33.10;;;;;;5050272;28;20515;-76
2022/01/31 08:24:25;;;;;;;2.63;1.45;;;20.90;33.10;;;;;;5049708;28;20397;-76
2022/01/31 08:26:51;;;;;;;2.22;1.38;;;20.90;33.10;;;;;;5050125;28;20378;-76
2022/01/31 08:31:43;;;;;;;2.63;1.30;;;20.90;33.20;;;;;;5050106;28;20389;-69
2022/01/31 08:36:42;;;;;;;2.80;1.47;;;20.90;33.20;;;;;;5053024;28;20471;-74
2022/01/31 08:39:19;;;;;;;2.63;1.30;;;20.80;33.30;;;;;;5053022;28;20485;-77
2022/01/31 08:41:48;;;;;;;2.65;1.40;;;20.70;33.30;;;;;;5051074;28;20400;-76
2022/01/31 08:44:17;;;;;;;2.03;1.25;;;20.70;33.40;;;;;;5053376;28;20746;-76
2022/01/31 08:46:47;;;;;;;3.10;1.50;;;20.70;33.30;;;;;;5033143;28;20395;-76
2022/01/31 08:49:15;;;;;;;2.83;1.30;;;20.70;33.20;;;;;;5041057;28;20405;-76
2022/01/31 08:51:41;;;;;;;2.42;1.30;;;20.70;33.20;;;;;;5032094;28;20895;-75
2022/01/31 08:54:07;;;;;;;3.05;1.50;;;20.80;33.20;;;;;;5048737;28;20393;-78
2022/01/31 08:56:40;;;;;;;2.75;1.40;;;20.70;33.00;;;;;;5052786;28;20455;-77
2022/01/31 08:59:09;;;;;;;2.63;1.30;;;20.70;33.10;;;;;;5053557;28;20480;-76
2022/01/31 09:01:35;;;;;;;2.90;1.40;;;20.70;33.10;;;;;;5053244;28;20926;-78
2022/01/31 09:04:02;;;;;;;2.72;1.48;;;20.70;32.90;;;;;;5053438;28;20480;-77
2022/01/31 09:06:30;;;;;;;2.73;1.30;;;20.70;33.00;;;;;;5053570;28;20382;-68
2022/01/31 09:08:57;;;;;;;2.13;1.20;;;20.70;33.20;;;;;;5053287;28;20497;-77
2022/01/31 09:11:24;;;;;;;2.50;1.27;;;20.70;33.60;;;;;;5052841;28;20448;-77
2022/01/31 09:13:50;;;;;;;2.33;1.20;;;20.80;34.20;;;;;;5053388;28;20447;-76
2022/01/31 09:16:16;;;;;;;2.27;1.30;;;20.80;34.40;;;;;;5052708;28;20393;-77
2022/01/31 09:18:42;;;;;;;3.55;1.55;;;20.80;34.00;;;;;;5052310;28;20405;-77
2022/01/31 09:21:08;;;;;;;2.97;1.23;;;20.80;33.80;;;;;;5052834;28;20414;-76
2022/01/31 09:23:34;;;;;;;2.38;1.30;;;20.80;33.60;;;;;;5052817;28;20928;-77
2022/01/31 09:26:00;;;;;;;3.97;1.30;;;20.80;33.50;;;;;;5034867;28;20440;-74
2022/01/31 09:28:26;;;;;;;2.67;1.20;;;20.80;33.40;;;;;;5052240;28;20405;-72
2022/01/31 09:30:53;;;;;;;2.70;1.20;;;20.80;33.30;;;;;;5052455;28;20389;-76
2022/01/31 09:33:19;;;;;;;3.05;1.40;;;20.80;33.20;;;;;;5052557;28;20454;-76
2022/01/31 09:35:46;;;;;;;2.72;1.33;;;20.80;33.20;;;;;;5052428;28;20397;-74
2022/01/31 09:38:14;;;;;;;3.05;1.40;;;20.80;33.20;;;;;;5034537;28;20512;-68
2022/01/31 09:40:41;;;;;;;3.08;1.30;;;20.80;33.10;;;;;;5033995;28;20386;-76
2022/01/31 09:45:57;;;;;;;2.42;1.40;;;20.80;33.70;;;;;;5051639;28;20389;-76
2022/01/31 09:48:37;;;;;;;4.65;1.30;;;20.80;33.10;;;;;;5052173;28;20386;-69
2022/01/31 09:51:07;;;;;;;2.33;1.10;;;20.70;33.10;;;;;;5037501;28;20447;-74
2022/01/31 09:53:41;;;;;;;2.30;1.30;;;20.80;33.10;;;;;;5051947;28;20865;-72
2022/01/31 09:56:11;;;;;;;2.67;1.38;;;20.70;33.00;;;;;;5034031;28;20758;-76
2022/01/31 09:58:39;;;;;;;3.00;1.30;;;20.70;32.90;;;;;;5050945;28;20405;-75
2022/01/31 10:01:12;;;;;;;2.47;1.38;;;20.70;33.00;;;;;;5051897;28;20382;-75
2022/01/31 10:03:55;;;;;;;3.40;1.50;;;20.70;32.90;;;;;;5051479;28;20479;-75
2022/01/31 10:06:25;;;;;;;2.90;1.40;;;20.80;32.90;;;;;;5051999;28;20390;-77
2022/01/31 10:09:13;;;;;;;2.80;1.38;;;20.70;32.80;;;;;;5035545;28;20382;-76
2022/01/31 10:11:50;;;;;;;3.40;1.40;;;20.70;32.80;;;;;;5051779;28;20397;-76
2022/01/31 10:17:31;;;;;;;2.27;1.40;;;20.70;32.80;;;;;;5051355;28;20434;-74
2022/01/31 10:20:00;;;;;;;3.40;1.40;;;20.70;32.80;;;;;;5049432;28;20467;-76
2022/01/31 10:22:29;;;;;;;3.40;1.60;;;20.70;32.80;;;;;;5051331;28;20429;-76
2022/01/31 10:24:57;;;;;;;2.35;1.38;;;20.70;32.70;;;;;;5051808;28;20484;-74
2022/01/31 10:27:29;;;;;;;2.97;1.30;;;20.70;32.70;;;;;;5051678;28;20976;-75
2022/01/31 10:30:14;;;;;;;2.45;1.30;;;20.70;32.60;;;;;;5051824;28;20420;-77
2022/01/31 10:32:42;;;;;;;3.10;1.60;;;20.70;32.70;;;;;;5051063;28;20382;-76
2022/01/31 10:35:11;;;;;;;2.45;1.60;;;20.70;32.80;;;;;;5051056;28;20377;-70
2022/01/31 10:37:41;;;;;;;2.75;1.58;;;20.70;33.00;;;;;;5051079;28;20417;-76
2022/01/31 10:56:46;;;;;;;4.07;1.70;;;20.60;32.60;;;;;;5049210;28;20742;-73
2022/01/31 10:59:17;;;;;;;3.72;1.77;;;20.70;32.80;;;;;;5050146;28;20397;-65
2022/01/31 11:01:46;;;;;;;3.80;1.80;;;20.60;32.90;;;;;;5048527;28;20394;-67
2022/01/31 11:04:15;;;;;;;3.65;1.70;;;20.60;32.90;;;;;;5050607;28;20401;-64
2022/01/31 11:06:42;;;;;;;3.30;1.83;;;20.60;32.90;;;;;;5047835;28;20392;-74
2022/01/31 11:09:11;;;;;;;2.42;1.50;;;20.60;32.80;;;;;;5050513;28;20385;-65
2022/01/31 11:11:39;;;;;;;3.20;1.60;;;20.60;32.70;;;;;;5050508;28;20900;-66
2022/01/31 11:14:06;;;;;;;6.13;1.90;;;20.60;32.70;;;;;;5050018;28;20741;-65
2022/01/31 11:16:32;;;;;;;3.08;1.70;;;20.60;32.70;;;;;;5046862;28;20772;-68
2022/01/31 11:19:02;;;;;;;2.60;1.40;;;20.60;33.10;;;;;;5058063;28;20408;-67
2022/01/31 11:21:32;;;;;;;4.78;3.40;;;20.60;33.40;;;;;;5049706;28;20398;-67
2022/01/31 11:24:02;;;;;;;6.77;3.57;;;20.70;36.90;;;;;;5050618;28;20885;-65
2022/01/31 11:26:36;;;;;;;5.30;2.80;;;20.80;38.20;;;;;;5049465;28;20390;-66
2022/01/31 11:29:04;;;;;;;3.00;2.08;;;20.90;36.80;;;;;;5049749;28;20398;-67
2022/01/31 11:31:30;;;;;;;3.83;2.08;;;20.90;36.40;;;;;;5031500;28;20404;-65
2022/01/31 11:33:58;;;;;;;4.20;1.93;;;21.00;36.10;;;;;;5049567;28;20786;-67
2022/01/31 11:36:24;;;;;;;4.03;1.90;;;21.00;35.90;;;;;;5049289;28;20469;-65
2022/01/31 11:38:51;;;;;;;3.25;1.50;;;21.00;35.90;;;;;;5048909;28;20389;-67
2022/01/31 11:41:18;;;;;;;4.18;1.40;;;21.00;35.80;;;;;;5049300;28;20400;-64
2022/01/31 11:43:59;;;;;;;2.65;1.50;;;21.00;35.70;;;;;;5030528;28;21013;-67
2022/01/31 11:46:27;;;;;;;2.85;1.40;;;21.00;35.60;;;;;;5048464;28;20429;-65
2022/01/31 11:48:53;;;;;;;3.05;1.60;;;21.00;35.60;;;;;;5046687;28;20389;-65
2022/01/31 11:51:20;;;;;;;2.60;1.30;;;21.10;35.70;;;;;;5049342;28;20547;-66
2022/01/31 11:53:46;;;;;;;2.30;1.23;;;21.10;35.50;;;;;;5049444;28;20806;-64
2022/01/31 11:56:18;;;;;;;3.70;1.30;;;21.10;35.00;;;;;;5031891;28;20536;-66
2022/01/31 11:58:47;;;;;;;2.55;1.13;;;21.00;35.10;;;;;;5049910;28;20750;-66
2022/01/31 12:01:14;;;;;;;2.53;1.15;;;21.10;35.60;;;;;;5049805;28;20924;-68
2022/01/31 12:03:56;;;;;;;2.83;1.20;;;21.10;35.90;;;;;;5049430;28;20429;-74
2022/01/31 12:06:23;;;;;;;4.45;1.30;;;21.20;35.80;;;;;;5048849;28;20386;-75
2022/01/31 12:08:51;;;;;;;1.70;1.13;;;21.20;35.80;;;;;;5051149;28;20416;-67
2022/01/31 12:11:23;;;;;;;2.20;1.10;;;21.20;35.70;;;;;;5053247;28;20435;-72
2022/01/31 12:13:53;;;;;;;1.88;0.77;;;21.20;35.50;;;;;;5054630;28;20505;-75
2022/01/31 12:17:08;;;;;;;1.85;1.00;;;21.20;35.50;;;;;;5054298;28;20386;-75
2022/01/31 12:22:12;;;;;;;2.70;1.02;;;21.10;35.40;;;;;;5054109;28;20393;-75
2022/01/31 12:24:38;;;;;;;1.98;1.00;;;21.10;35.50;;;;;;5053766;28;20386;-73
2022/01/31 12:27:13;;;;;;;2.03;0.98;;;21.00;35.10;;;;;;5053905;28;20492;-75
2022/01/31 12:29:43;;;;;;;1.92;0.80;;;21.00;35.20;;;;;;5054233;28;20390;-74
2022/01/31 12:32:19;;;;;;;1.33;0.77;;;21.00;34.40;;;;;;5053770;28;20397;-75
2022/01/31 12:34:52;;;;;;;2.70;1.00;;;20.90;35.10;;;;;;5053640;28;20382;-64
2022/01/31 12:37:25;;;;;;;1.60;0.90;;;20.90;34.80;;;;;;5054042;28;20496;-74
2022/01/31 12:39:58;;;;;;;2.10;1.00;;;20.90;34.60;;;;;;5054139;28;20405;-74
2022/01/31 12:45:31;;;;;;;1.83;0.90;;;20.90;34.40;;;;;;5053759;28;20792;-74
2022/01/31 12:48:06;;;;;;;2.22;1.00;;;20.90;34.10;;;;;;5035540;28;20452;-74
2022/01/31 12:50:34;;;;;;;3.25;0.95;;;20.90;33.80;;;;;;5035178;28;20504;-64
2022/01/31 12:53:06;;;;;;;1.83;0.90;;;20.90;33.50;;;;;;5030556;28;20413;-66
2022/01/31 12:55:34;;;;;;;1.92;0.80;;;20.90;33.50;;;;;;5033371;28;20386;-64
2022/01/31 12:58:00;;;;;;;1.50;0.80;;;20.90;33.30;;;;;;5015604;28;20465;-67
2022/01/31 13:00:41;;;;;;;1.70;0.95;;;20.90;33.20;;;;;;5043829;28;20385;-73
2022/01/31 13:03:08;;;;;;;1.30;0.80;;;20.90;33.20;;;;;;5051363;28;20447;-71
2022/01/31 13:05:35;;;;;;;1.63;0.80;;;20.90;33.20;;;;;;5052556;28;20383;-64
2022/01/31 13:08:17;;;;;;;1.73;0.70;;;20.90;33.20;;;;;;5052749;28;20397;-71
2022/01/31 13:10:43;;;;;;;1.40;0.80;;;20.90;33.30;;;;;;5050291;28;20397;-74
2022/01/31 13:13:08;;;;;;;1.50;0.90;;;20.80;33.20;;;;;;5053002;28;20783;-68
2022/01/31 13:15:34;;;;;;;1.20;0.73;;;20.90;33.10;;;;;;5053181;28;20409;-68
2022/01/31 13:18:09;;;;;;;1.33;0.70;;;20.80;33.00;;;;;;5052757;28;20420;-64
2022/01/31 13:20:36;;;;;;;1.20;0.70;;;20.80;33.00;;;;;;5051263;28;20388;-65
2022/01/31 13:23:04;;;;;;;1.30;0.80;;;20.80;33.10;;;;;;5052265;28;20381;-71